Restinga Seca, Brazil
Current Conditions -  °F | °C
As of 6:00 PM on Tuesday 27 Jan 2015 (Local Time) from SBSM Reporting Station
Broken Clouds Broken Clouds  
Wind Chill: 77°   Ceiling: 10000
Heat Index: 78°   Visibility: 6mi
Dew Point: 73°   Wind: 8mph
Humidity: 89%   Direction: 50°NE
Pressure: 29.77"   Gusts: NA
Location:  29.81°S, 53.37°W
Report Text: SBSM 272000Z 05007KT 9999 FEW030 FEW040TCU BKN100 25/23 Q1008
Loading
Personal Weather Stations






























Interactive Weather Map New forecast layout! Learn more

10-Day Weather Forecast

Advertisements
Track Severe Weather on mobile